Airport View

Enter AWOS ICAO identifier for current METAR.

ex. KFNL

KBAB 191158Z AUTO 02008KT 10SM CLR 02/M05 A3018 RMK AO2 SLP223 T00191053 10052 21001 58008 $

19 Feb 2019 13:07

Other Area AWOS: KMYV - KLHM - KAUN - KGOO

TAF KBAB 190305Z 1903/2009 33009KT 9999 SKC QNH3011INS BECMG 2002/2003 15009KT 9999 FEW100 QNH3006INS TX08/1921Z TNM01/1914Z